Weather reports worldwide

Advertisment
Monks wood, United Kingdom (99078): temperature & dewpoint: 14.06.2019 13:00:00 - 20.06.2019 13:00:00 (BST)Monks wood, United Kingdom (99078): temperature -20cm & temperature -100cm: 14.06.2019 13:00:00 - 20.06.2019 13:00:00 (BST)Monks wood, United Kingdom (99078): wind speed & gusts: 14.06.2019 13:00:00 - 20.06.2019 13:00:00 (BST)Monks wood, United Kingdom (99078): wind direction: 14.06.2019 13:00:00 - 20.06.2019 13:00:00 (BST)Monks wood, United Kingdom (99078): precipitation: 14.06.2019 13:00:00 - 20.06.2019 13:00:00 (BST)
Date & Time tt [°C] td [°C] tt -20cm [°C] tt -100cm [°C] ff [km/h] ff [kn] fx [km/h] fx [kn] dd rr [mm]
20.06.2019 13:00:00 17,2 7,3 - - 16 9 - - WSW 0,0
20.06.2019 12:00:00 16,6 9,6 - - 13 7 - - WSW 0,0
20.06.2019 11:00:00 18,2 11,1 - - 16 9 - - WSW 0,0
20.06.2019 10:00:00 16,8 10,5 15,2 13,7 13 7 - - WSW 0,0
20.06.2019 09:00:00 16,0 10,7 - - 11 6 - - WSW 0,0
20.06.2019 08:00:00 14,2 9,9 - - 13 7 - - WSW 0,0
20.06.2019 07:00:00 12,7 9,3 - - 11 6 - - WSW 0,0
20.06.2019 06:00:00 12,3 9,6 - - 9 5 - - WSW 0,0
20.06.2019 05:00:00 12,9 10,6 - - 5 3 - - WSW 0,0
20.06.2019 04:00:00 13,4 10,8 - - 5 3 - - W 0,0
20.06.2019 03:00:00 13,4 10,8 - - 5 3 - - W 0,0
20.06.2019 02:00:00 12,8 11,4 - - 5 3 - - WSW 0,0
20.06.2019 01:00:00 13,7 11,7 - - 4 2 - - W 0,0
20.06.2019 00:00:00 14,0 12,8 - - 5 3 - - WSW 0,0
19.06.2019 23:00:00 14,0 13,1 - - 4 2 - - SSW 0,0
19.06.2019 22:00:00 14,6 13,2 - - 0 0 - - N 0,0
19.06.2019 21:00:00 15,9 13,3 - - 2 1 - - N 0,0
19.06.2019 20:00:00 17,7 12,7 - - 4 2 - - NNE 0,0
19.06.2019 19:00:00 18,3 14,2 - - 5 3 - - NW 0,0
19.06.2019 18:00:00 18,7 14,4 - - 5 3 - - W 0,0
19.06.2019 17:00:00 18,7 14,9 - - 4 2 - - W 0,0
19.06.2019 16:00:00 17,6 15,0 - - 4 2 - - WNW 0,0
19.06.2019 15:00:00 17,9 15,0 - - 4 2 - - W 0,0
19.06.2019 14:00:00 16,8 15,4 - - 4 2 - - WNW 2,0
19.06.2019 13:00:00 18,8 14,5 - - 4 2 - - WNW 0,0
19.06.2019 12:00:00 17,8 14,8 - - 4 2 - - NNE 0,0
19.06.2019 11:00:00 17,0 13,9 - - 4 2 - - N 0,0
19.06.2019 10:00:00 16,2 14,3 15,0 13,7 4 2 - - NNE 0,0
19.06.2019 09:00:00 15,3 14,1 - - 2 1 - - N 0,0
19.06.2019 08:00:00 14,5 13,8 - - 4 2 - - ENE 0,0
19.06.2019 07:00:00 13,5 13,5 - - 4 2 - - NNE 0,0
19.06.2019 06:00:00 12,9 12,9 - - 4 2 - - NNE 0,0
19.06.2019 05:00:00 13,3 13,3 - - 4 2 - - NNE 0,0
19.06.2019 04:00:00 13,2 13,2 - - 4 2 - - NE 0,0
19.06.2019 03:00:00 13,9 13,9 - - 4 2 - - NNE 0,0
19.06.2019 02:00:00 14,2 14,2 - - 4 2 - - ENE 0,0
19.06.2019 01:00:00 14,2 14,2 - - 2 1 - - NE 0,0
19.06.2019 00:00:00 14,5 14,5 - - 4 2 - - NNE 0,4
18.06.2019 23:00:00 14,5 14,4 - - 2 1 - - NNW 0,0
18.06.2019 22:00:00 14,5 14,3 - - 2 1 - - N 0,0
18.06.2019 21:00:00 14,9 14,5 - - 2 1 - - SSE 3,0
18.06.2019 20:00:00 15,4 14,7 - - 5 3 - - W 0,6
18.06.2019 19:00:00 16,2 14,6 - - 4 2 - - SE 0,4
18.06.2019 18:00:00 17,2 15,1 - - 0 0 - - N 0,4
18.06.2019 17:00:00 18,7 13,1 - - 2 1 - - NNE 0,0
18.06.2019 16:00:00 19,0 12,2 - - 0 0 - - N 0,0
18.06.2019 15:00:00 18,8 12,7 - - 5 3 - - SW 0,0
18.06.2019 14:00:00 19,5 12,2 - - 5 3 - - SSW 0,0
18.06.2019 13:00:00 18,6 11,9 - - 9 5 - - SSW 0,0
18.06.2019 12:00:00 18,8 12,4 - - 8 4 - - SSW 0,0
18.06.2019 11:00:00 17,7 12,2 - - 8 4 - - SSW 0,0
18.06.2019 10:00:00 17,2 13,5 14,7 13,5 8 4 - - SSW 0,0
18.06.2019 09:00:00 14,4 12,3 - - 8 4 - - SSW 0,0
18.06.2019 08:00:00 13,2 11,4 - - 9 5 - - SSW 0,0
18.06.2019 07:00:00 12,0 11,7 - - 9 5 - - SSW 0,0
18.06.2019 06:00:00 9,8 9,8 - - 2 1 - - SSW 0,0
18.06.2019 05:00:00 8,9 8,5 - - 8 4 - - SSW 0,0
18.06.2019 04:00:00 10,2 9,5 - - 8 4 - - S 0,0
18.06.2019 03:00:00 9,8 8,9 - - 5 3 - - S 0,0
18.06.2019 02:00:00 11,1 10,1 - - 9 5 - - SSW 0,0
18.06.2019 01:00:00 11,0 9,9 - - 9 5 - - WSW 0,0
18.06.2019 00:00:00 11,9 10,5 - - 9 5 - - SW 0,0
17.06.2019 23:00:00 11,3 9,9 - - 9 5 - - SW 0,0
17.06.2019 22:00:00 12,3 10,0 - - 8 4 - - SW 0,0
17.06.2019 21:00:00 14,7 10,4 - - 8 4 - - SW 0,0
17.06.2019 20:00:00 17,1 10,6 - - 9 5 - - SW 0,0
17.06.2019 19:00:00 18,8 10,0 - - 15 8 - - SW 0,0
17.06.2019 18:00:00 19,3 10,9 - - 18 10 - - SW 0,0
17.06.2019 17:00:00 19,0 10,6 - - 18 10 - - WSW 0,0
17.06.2019 16:00:00 19,2 11,2 - - 16 9 - - SW 0,0
17.06.2019 15:00:00 18,7 11,1 - - 18 10 - - SW 0,0
17.06.2019 14:00:00 - - - - 18 10 - - SW 0,0
17.06.2019 13:00:00 - - - - 21 11 - - SSW 0,0
17.06.2019 12:00:00 17,6 10,6 - - 21 11 - - SW 0,0
17.06.2019 11:00:00 17,8 10,7 - - 26 14 - - SSW 0,0
17.06.2019 10:00:00 16,6 11,5 14,4 13,4 22 12 - - SSW 0,0
17.06.2019 09:00:00 16,1 11,4 - - 21 11 - - SSW 0,0
17.06.2019 08:00:00 14,8 11,3 - - 18 10 - - SSW 0,0
17.06.2019 07:00:00 13,2 11,1 - - 15 8 - - SSW 0,0
17.06.2019 06:00:00 11,6 10,4 - - 13 7 - - S 0,0
17.06.2019 05:00:00 11,9 10,6 - - 15 8 - - SSW 0,0
17.06.2019 04:00:00 11,2 10,2 - - 13 7 - - SSW 0,0
17.06.2019 03:00:00 11,7 10,4 - - 16 9 - - SSW 0,0
17.06.2019 02:00:00 11,8 10,3 - - 15 8 - - SSW 0,0
17.06.2019 01:00:00 12,5 10,4 - - 15 8 - - SSW 0,0
17.06.2019 00:00:00 13,0 10,4 - - 13 7 - - SSW 0,0
16.06.2019 23:00:00 13,5 10,3 - - 15 8 - - SSW 0,0
16.06.2019 22:00:00 14,2 9,8 - - 15 8 - - SW 0,0
16.06.2019 21:00:00 16,2 10,5 - - 18 10 - - SSW 0,0
16.06.2019 20:00:00 17,0 11,6 - - 18 10 - - SSW 0,0
16.06.2019 19:00:00 17,9 11,6 - - 22 12 - - SW 0,0
16.06.2019 18:00:00 18,3 11,9 - - 16 9 - - SW 0,0
16.06.2019 17:00:00 18,8 11,8 - - 21 11 - - SW 0,0
16.06.2019 16:00:00 19,6 12,4 - - 24 13 48 26 SW 0,0
16.06.2019 15:00:00 19,8 11,7 - - 22 12 - - SW 0,0
16.06.2019 14:00:00 19,7 13,6 - - 18 10 - - SW 0,0
16.06.2019 13:00:00 15,0 12,3 - - 11 6 - - W 0,4
16.06.2019 12:00:00 16,8 13,0 - - 16 9 - - SSW 0,0
16.06.2019 11:00:00 14,8 11,9 - - 15 8 - - SSW 0,0
16.06.2019 10:00:00 14,5 11,8 14,2 13,4 16 9 - - SSW 0,0
16.06.2019 09:00:00 13,0 11,7 - - 13 7 - - SSW 0,0
16.06.2019 08:00:00 11,5 10,7 - - 11 6 - - SSW 0,0
16.06.2019 07:00:00 10,4 10,1 - - 11 6 - - SSW 0,0
16.06.2019 06:00:00 8,3 8,2 - - 11 6 - - SSW 0,0
16.06.2019 05:00:00 8,0 7,7 - - 9 5 - - SSW 0,2
16.06.2019 04:00:00 8,0 7,9 - - 9 5 - - SSW 0,0
16.06.2019 03:00:00 7,3 7,2 - - 5 3 - - S 0,0
16.06.2019 02:00:00 7,6 7,3 - - 8 4 - - SSW 0,0
16.06.2019 01:00:00 8,5 8,0 - - 8 4 - - SSW 0,0
16.06.2019 00:00:00 9,4 8,6 - - 8 4 - - SW 0,0
15.06.2019 23:00:00 11,0 9,9 - - 8 4 - - SSW 0,0
15.06.2019 22:00:00 11,3 10,1 - - 8 4 - - S 4,0
15.06.2019 21:00:00 14,0 10,2 - - 9 5 - - WSW 0,0
15.06.2019 20:00:00 15,3 10,5 - - 8 4 - - WSW 0,4
15.06.2019 19:00:00 15,1 8,5 - - 11 6 - - WSW 0,0
15.06.2019 18:00:00 17,0 12,3 - - 21 11 - - SSW 0,0
15.06.2019 17:00:00 16,8 10,4 - - 24 13 - - SSW 0,0
15.06.2019 16:00:00 17,1 10,9 - - 16 9 - - S 0,0
15.06.2019 15:00:00 16,5 10,5 - - 18 10 - - SSW 0,0
15.06.2019 14:00:00 17,5 10,9 - - 15 8 - - SSW 0,0
15.06.2019 13:00:00 16,9 11,0 - - 15 8 - - SSW 0,0
15.06.2019 12:00:00 16,1 9,8 - - 15 8 - - SSW 0,0
15.06.2019 11:00:00 17,4 10,6 - - 21 11 - - SSW 0,0
15.06.2019 10:00:00 16,6 11,3 14,2 13,4 21 11 - - SSW 0,0
15.06.2019 09:00:00 15,9 11,4 - - 11 6 - - SSW 0,0
15.06.2019 08:00:00 12,9 11,3 - - 9 5 - - S 0,0
15.06.2019 07:00:00 10,0 9,4 - - 5 3 - - S 0,0
15.06.2019 06:00:00 9,7 9,4 - - 8 4 - - S 0,0
15.06.2019 05:00:00 8,7 8,6 - - 5 3 - - S 0,0
15.06.2019 04:00:00 7,8 7,6 - - 5 3 - - SW 0,0
15.06.2019 03:00:00 8,0 7,5 - - 5 3 - - S 0,0
15.06.2019 02:00:00 8,3 7,6 - - 5 3 - - S 0,0
15.06.2019 01:00:00 10,0 8,5 - - 8 4 - - S 0,0
15.06.2019 00:00:00 10,3 9,3 - - 5 3 - - S 0,0
14.06.2019 23:00:00 10,8 8,1 - - 5 3 - - SSW 0,0
14.06.2019 22:00:00 12,9 8,9 - - 9 5 - - SSW 0,0
14.06.2019 21:00:00 14,8 9,3 - - 11 6 - - SSW 0,0
14.06.2019 20:00:00 16,3 9,3 - - 16 9 - - SSW 0,0
14.06.2019 19:00:00 17,4 9,7 - - 22 12 - - SSW 0,0
14.06.2019 18:00:00 18,3 9,7 - - 22 12 - - SSW 0,0
14.06.2019 17:00:00 18,1 10,4 - - 24 13 46 25 SSW 0,0
14.06.2019 16:00:00 18,7 11,4 - - 18 10 - - SSW 0,0
14.06.2019 15:00:00 17,1 12,6 - - 13 7 - - SW 0,2
14.06.2019 14:00:00 15,1 12,5 - - 16 9 - - SSW 0,2
14.06.2019 13:00:00 15,8 11,6 - - 16 9 - - SSW 0,2

tt = temperature
td = dewpoint
tt -20cm = temperature -20cm
tt -100cm = temperature -100cm
ff = wind speed
fx = gusts
dd = wind direction
rr = precipitation

Next stations